SWA661 KSJC-KPHX
Flight info
| Callsign | SWA661 |
|---|---|
| Flight time | 1h 30m |
| Altitude | 39000 |
| Route | SPTNS1 JFREE LOSHN BOILE BLH HYDRR1 |
| Aircraft | B738/M-SADE2E3GIJ4RWZ/LB1D1 |
Departure
| Time | 2026-05-04 14:34 |
|---|---|
| Airport | Norman Y. Mineta San Jose International Airport (KSJC) |
Arrival
| Time | 2026-05-04 16:04 |
|---|---|
| Airport | Phoenix Sky Harbor International Airport (KPHX) |
| Time | Latitude | Longitude | Altitude | Speed | Heading |
|---|---|---|---|---|---|
| 2026-05-04 13:54 | 37.36565 | -121.92602 | 55 ft | 0 kts | 47° |
| 2026-05-04 14:13 | 37.36551 | -121.92624 | 52 ft | 4 kts | 56° |
| 2026-05-04 14:13 | 37.36538 | -121.92653 | 48 ft | 4 kts | 71° |
| 2026-05-04 14:14 | 37.36534 | -121.92685 | 53 ft | 4 kts | 97° |
| 2026-05-04 14:14 | 37.36543 | -121.92713 | 48 ft | 1 kts | 140° |
| 2026-05-04 14:21 | 37.36525 | -121.92694 | 52 ft | 8 kts | 144° |
| 2026-05-04 14:21 | 37.36465 | -121.92709 | 56 ft | 9 kts | 190° |
| 2026-05-04 14:21 | 37.36412 | -121.92667 | 55 ft | 10 kts | 139° |
| 2026-05-04 14:21 | 37.36339 | -121.92587 | 57 ft | 19 kts | 139° |
| 2026-05-04 14:22 | 37.36231 | -121.92470 | 59 ft | 20 kts | 139° |
| 2026-05-04 14:22 | 37.36126 | -121.92354 | 57 ft | 20 kts | 138° |
| 2026-05-04 14:22 | 37.36024 | -121.92240 | 56 ft | 19 kts | 138° |
| 2026-05-04 14:22 | 37.35924 | -121.92133 | 59 ft | 19 kts | 139° |
| 2026-05-04 14:23 | 37.35736 | -121.91926 | 60 ft | 17 kts | 139° |
| 2026-05-04 14:23 | 37.35647 | -121.91828 | 66 ft | 17 kts | 139° |
| 2026-05-04 14:23 | 37.35561 | -121.91734 | 63 ft | 16 kts | 139° |
| 2026-05-04 14:24 | 37.35478 | -121.91643 | 65 ft | 15 kts | 139° |
| 2026-05-04 14:24 | 37.35399 | -121.91556 | 69 ft | 15 kts | 139° |
| 2026-05-04 14:24 | 37.35330 | -121.91483 | 62 ft | 8 kts | 145° |
| 2026-05-04 14:24 | 37.35303 | -121.91470 | 61 ft | 0 kts | 176° |
| 2026-05-04 14:32 | 37.35283 | -121.91482 | 65 ft | 7 kts | 226° |
| 2026-05-04 14:33 | 37.35257 | -121.91559 | 69 ft | 11 kts | 297° |
| 2026-05-04 14:33 | 37.35333 | -121.91648 | 62 ft | 31 kts | 319° |
| 2026-05-04 14:33 | 37.35709 | -121.92059 | 61 ft | 113 kts | 319° |
| 2026-05-04 14:33 | 37.36486 | -121.92907 | 109 ft | 177 kts | 319° |
| 2026-05-04 14:34 | 37.37470 | -121.93974 | 819 ft | 195 kts | 319° |
| 2026-05-04 14:34 | 37.38526 | -121.95129 | 1733 ft | 208 kts | 318° |
| 2026-05-04 14:34 | 37.39680 | -121.96401 | 2083 ft | 230 kts | 317° |
| 2026-05-04 14:34 | 37.41064 | -121.97503 | 2514 ft | 251 kts | 344° |
| 2026-05-04 14:35 | 37.42831 | -121.97462 | 3164 ft | 263 kts | 18° |
| 2026-05-04 14:35 | 37.44365 | -121.96203 | 3941 ft | 267 kts | 53° |
| 2026-05-04 14:35 | 37.45065 | -121.94127 | 4734 ft | 257 kts | 86° |
| 2026-05-04 14:35 | 37.44744 | -121.92021 | 5008 ft | 244 kts | 123° |
| 2026-05-04 14:36 | 37.43618 | -121.90470 | 5019 ft | 240 kts | 141° |
| 2026-05-04 14:36 | 37.42349 | -121.89116 | 5006 ft | 237 kts | 141° |
| 2026-05-04 14:36 | 37.41096 | -121.87783 | 5005 ft | 235 kts | 141° |
| 2026-05-04 14:36 | 37.39844 | -121.86439 | 5016 ft | 237 kts | 141° |
| 2026-05-04 14:37 | 37.38610 | -121.85102 | 5026 ft | 238 kts | 140° |
| 2026-05-04 14:37 | 37.37360 | -121.83736 | 5023 ft | 239 kts | 140° |
| 2026-05-04 14:37 | 37.36101 | -121.82356 | 5023 ft | 240 kts | 140° |
| 2026-05-04 14:37 | 37.34841 | -121.80971 | 5021 ft | 241 kts | 140° |
| 2026-05-04 14:38 | 37.33579 | -121.79585 | 5017 ft | 241 kts | 140° |
| 2026-05-04 14:38 | 37.32313 | -121.78185 | 5022 ft | 246 kts | 139° |
| 2026-05-04 14:38 | 37.31000 | -121.76702 | 5035 ft | 259 kts | 139° |
| 2026-05-04 14:38 | 37.29650 | -121.75168 | 5034 ft | 263 kts | 139° |
| 2026-05-04 14:39 | 37.28295 | -121.73627 | 5083 ft | 264 kts | 139° |
| 2026-05-04 14:39 | 37.26946 | -121.72094 | 5746 ft | 263 kts | 139° |
| 2026-05-04 14:39 | 37.25605 | -121.70571 | 6782 ft | 258 kts | 139° |
| 2026-05-04 14:40 | 37.22858 | -121.67456 | 8155 ft | 273 kts | 138° |
| 2026-05-04 14:40 | 37.21434 | -121.65843 | 8880 ft | 278 kts | 138° |
| 2026-05-04 14:40 | 37.19984 | -121.64201 | 9614 ft | 284 kts | 138° |
| 2026-05-04 14:40 | 37.18501 | -121.62524 | 10247 ft | 292 kts | 137° |
| 2026-05-04 14:41 | 37.16955 | -121.60776 | 10678 ft | 305 kts | 137° |
| 2026-05-04 14:41 | 37.15362 | -121.58975 | 11322 ft | 311 kts | 137° |
| 2026-05-04 14:41 | 37.12124 | -121.55318 | 12835 ft | 315 kts | 137° |
| 2026-05-04 14:42 | 37.08832 | -121.51606 | 14257 ft | 321 kts | 137° |
| 2026-05-04 14:42 | 37.07165 | -121.49728 | 14882 ft | 324 kts | 137° |
| 2026-05-04 14:42 | 37.05510 | -121.47788 | 15543 ft | 327 kts | 133° |
| 2026-05-04 14:43 | 37.03948 | -121.45707 | 16184 ft | 330 kts | 131° |
| 2026-05-04 14:43 | 37.02408 | -121.43561 | 16811 ft | 333 kts | 130° |
| 2026-05-04 14:43 | 37.00856 | -121.41382 | 17431 ft | 337 kts | 130° |
| 2026-05-04 14:43 | 36.99283 | -121.39184 | 18063 ft | 341 kts | 130° |
| 2026-05-04 14:44 | 36.97687 | -121.36971 | 18635 ft | 344 kts | 131° |
| 2026-05-04 14:44 | 36.96070 | -121.34741 | 19197 ft | 347 kts | 131° |
| 2026-05-04 14:44 | 36.94444 | -121.32508 | 19783 ft | 349 kts | 131° |
| 2026-05-04 14:44 | 36.92802 | -121.30262 | 20358 ft | 351 kts | 131° |
| 2026-05-04 14:45 | 36.91151 | -121.28007 | 20915 ft | 353 kts | 131° |
| 2026-05-04 14:45 | 36.89507 | -121.25766 | 21457 ft | 356 kts | 131° |
| 2026-05-04 14:45 | 36.87827 | -121.23476 | 21954 ft | 359 kts | 132° |
| 2026-05-04 14:45 | 36.86133 | -121.21170 | 22471 ft | 362 kts | 132° |
| 2026-05-04 14:46 | 36.84420 | -121.18839 | 23001 ft | 365 kts | 132° |
| 2026-05-04 14:46 | 36.82689 | -121.16487 | 23461 ft | 370 kts | 133° |
| 2026-05-04 14:46 | 36.80940 | -121.14112 | 23881 ft | 373 kts | 133° |
| 2026-05-04 14:46 | 36.79177 | -121.11719 | 24253 ft | 377 kts | 134° |
| 2026-05-04 14:47 | 36.77389 | -121.09294 | 24629 ft | 381 kts | 134° |
| 2026-05-04 14:47 | 36.75586 | -121.06851 | 25010 ft | 384 kts | 135° |
| 2026-05-04 14:47 | 36.73769 | -121.04390 | 25381 ft | 388 kts | 135° |
| 2026-05-04 14:47 | 36.71933 | -121.01904 | 25754 ft | 391 kts | 136° |
| 2026-05-04 14:48 | 36.70082 | -120.99400 | 26138 ft | 394 kts | 136° |
| 2026-05-04 14:48 | 36.68215 | -120.96877 | 26496 ft | 397 kts | 137° |
| 2026-05-04 14:48 | 36.66333 | -120.94336 | 26849 ft | 401 kts | 137° |
| 2026-05-04 14:48 | 36.64395 | -120.91838 | 27218 ft | 402 kts | 141° |
| 2026-05-04 14:49 | 36.62370 | -120.89429 | 27569 ft | 404 kts | 143° |
| 2026-05-04 14:49 | 36.60301 | -120.87044 | 27918 ft | 406 kts | 144° |
| 2026-05-04 14:49 | 36.58246 | -120.84692 | 28266 ft | 408 kts | 144° |
| 2026-05-04 14:49 | 36.56154 | -120.82291 | 28608 ft | 411 kts | 145° |
| 2026-05-04 14:50 | 36.54022 | -120.79831 | 28937 ft | 413 kts | 146° |
| 2026-05-04 14:50 | 36.51942 | -120.77419 | 29248 ft | 415 kts | 146° |
| 2026-05-04 14:50 | 36.49829 | -120.74962 | 29585 ft | 418 kts | 147° |
| 2026-05-04 14:50 | 36.47702 | -120.72487 | 29933 ft | 420 kts | 147° |
| 2026-05-04 14:51 | 36.45567 | -120.70000 | 30255 ft | 422 kts | 147° |
| 2026-05-04 14:51 | 36.43424 | -120.67506 | 30507 ft | 423 kts | 148° |
| 2026-05-04 14:51 | 36.41268 | -120.64999 | 30753 ft | 425 kts | 148° |
| 2026-05-04 14:51 | 36.39104 | -120.62484 | 30973 ft | 428 kts | 148° |
| 2026-05-04 14:52 | 36.36917 | -120.59947 | 31104 ft | 433 kts | 148° |
| 2026-05-04 14:52 | 36.34714 | -120.57391 | 31315 ft | 435 kts | 148° |
| 2026-05-04 14:52 | 36.32504 | -120.54825 | 31573 ft | 436 kts | 148° |
| 2026-05-04 14:52 | 36.30282 | -120.52250 | 31809 ft | 437 kts | 148° |
| 2026-05-04 14:53 | 36.28057 | -120.49675 | 32060 ft | 439 kts | 148° |
| 2026-05-04 14:53 | 36.25814 | -120.47080 | 32279 ft | 442 kts | 148° |
| 2026-05-04 14:53 | 36.23563 | -120.44478 | 32497 ft | 444 kts | 148° |
| 2026-05-04 14:53 | 36.21299 | -120.41865 | 32706 ft | 446 kts | 148° |
| 2026-05-04 14:54 | 36.19023 | -120.39237 | 32923 ft | 448 kts | 148° |
| 2026-05-04 14:54 | 36.16738 | -120.36603 | 33125 ft | 450 kts | 148° |
| 2026-05-04 14:54 | 36.14443 | -120.33959 | 33311 ft | 452 kts | 148° |
| 2026-05-04 14:54 | 36.12138 | -120.31307 | 33522 ft | 454 kts | 148° |
| 2026-05-04 14:55 | 36.09823 | -120.28644 | 33705 ft | 456 kts | 148° |
| 2026-05-04 14:55 | 36.07496 | -120.25970 | 33914 ft | 457 kts | 147° |
| 2026-05-04 14:55 | 36.05169 | -120.23297 | 34102 ft | 458 kts | 147° |
| 2026-05-04 14:55 | 36.02834 | -120.20617 | 34282 ft | 459 kts | 147° |
| 2026-05-04 14:56 | 36.00490 | -120.17931 | 34460 ft | 460 kts | 147° |
| 2026-05-04 14:56 | 35.98175 | -120.15279 | 34620 ft | 461 kts | 147° |
| 2026-05-04 14:56 | 35.95822 | -120.12587 | 34772 ft | 462 kts | 147° |
| 2026-05-04 14:56 | 35.93464 | -120.09890 | 34932 ft | 463 kts | 146° |
| 2026-05-04 14:57 | 35.91096 | -120.07185 | 35064 ft | 464 kts | 146° |
| 2026-05-04 14:57 | 35.88719 | -120.04470 | 35237 ft | 465 kts | 146° |
| 2026-05-04 14:57 | 35.86351 | -120.01770 | 35438 ft | 464 kts | 146° |
| 2026-05-04 14:57 | 35.84015 | -119.99015 | 35657 ft | 467 kts | 142° |
| 2026-05-04 14:58 | 35.81815 | -119.96043 | 35868 ft | 470 kts | 140° |
| 2026-05-04 14:58 | 35.79678 | -119.92993 | 36053 ft | 471 kts | 139° |
| 2026-05-04 14:58 | 35.77567 | -119.89918 | 36231 ft | 471 kts | 138° |
| 2026-05-04 14:58 | 35.75452 | -119.86835 | 36425 ft | 470 kts | 138° |
| 2026-05-04 14:59 | 35.73339 | -119.83773 | 36626 ft | 470 kts | 138° |
| 2026-05-04 14:59 | 35.71214 | -119.80722 | 36804 ft | 469 kts | 139° |
| 2026-05-04 14:59 | 35.66975 | -119.74694 | 37025 ft | 470 kts | 139° |
| 2026-05-04 15:00 | 35.64816 | -119.71645 | 37021 ft | 473 kts | 139° |
| 2026-05-04 15:00 | 35.60469 | -119.65519 | 37040 ft | 478 kts | 139° |
| 2026-05-04 15:01 | 35.53855 | -119.56208 | 37032 ft | 484 kts | 140° |
| 2026-05-04 15:01 | 35.49416 | -119.49966 | 37027 ft | 486 kts | 141° |
| 2026-05-04 15:02 | 35.44990 | -119.43752 | 37024 ft | 486 kts | 141° |
| 2026-05-04 15:02 | 35.40535 | -119.37509 | 37021 ft | 485 kts | 142° |
| 2026-05-04 15:03 | 35.36084 | -119.31285 | 37026 ft | 484 kts | 143° |
| 2026-05-04 15:03 | 35.31647 | -119.25093 | 37034 ft | 482 kts | 143° |
| 2026-05-04 15:04 | 35.27219 | -119.18926 | 37033 ft | 481 kts | 144° |
| 2026-05-04 15:04 | 35.22806 | -119.12791 | 37027 ft | 480 kts | 144° |
| 2026-05-04 15:05 | 35.18421 | -119.06705 | 37025 ft | 478 kts | 145° |
| 2026-05-04 15:05 | 35.14019 | -119.00608 | 37030 ft | 478 kts | 145° |
| 2026-05-04 15:06 | 35.09620 | -118.94526 | 37025 ft | 477 kts | 145° |
| 2026-05-04 15:07 | 35.03040 | -118.85448 | 37022 ft | 477 kts | 146° |
| 2026-05-04 15:07 | 34.98636 | -118.79385 | 37030 ft | 477 kts | 146° |
| 2026-05-04 15:08 | 34.94214 | -118.73312 | 37047 ft | 480 kts | 146° |
| 2026-05-04 15:08 | 34.89759 | -118.67207 | 37011 ft | 482 kts | 147° |
| 2026-05-04 15:09 | 34.85308 | -118.61108 | 37016 ft | 482 kts | 147° |
| 2026-05-04 15:09 | 34.80852 | -118.55009 | 37016 ft | 482 kts | 147° |
| 2026-05-04 15:10 | 34.74198 | -118.45927 | 37011 ft | 481 kts | 147° |
| 2026-05-04 15:11 | 34.67510 | -118.36828 | 37026 ft | 480 kts | 147° |
| 2026-05-04 15:11 | 34.63047 | -118.30773 | 37018 ft | 481 kts | 147° |
| 2026-05-04 15:12 | 34.58846 | -118.25076 | 37001 ft | 480 kts | 147° |
| 2026-05-04 15:12 | 34.54382 | -118.19032 | 36990 ft | 479 kts | 147° |
| 2026-05-04 15:13 | 34.49943 | -118.13035 | 36997 ft | 477 kts | 147° |
| 2026-05-04 15:13 | 34.45506 | -118.07054 | 36999 ft | 478 kts | 147° |
| 2026-05-04 15:13 | 34.43419 | -118.03830 | 36982 ft | 497 kts | 137° |
| 2026-05-04 15:14 | 34.41689 | -118.00134 | 37003 ft | 514 kts | 128° |
| 2026-05-04 15:14 | 34.40409 | -117.96035 | 36998 ft | 528 kts | 118° |
| 2026-05-04 15:14 | 34.39374 | -117.91751 | 37019 ft | 530 kts | 117° |
| 2026-05-04 15:15 | 34.37439 | -117.83108 | 36996 ft | 531 kts | 116° |
| 2026-05-04 15:15 | 34.35480 | -117.74514 | 36997 ft | 529 kts | 117° |
| 2026-05-04 15:16 | 34.32411 | -117.61679 | 37006 ft | 530 kts | 117° |
| 2026-05-04 15:17 | 34.29295 | -117.48848 | 36992 ft | 531 kts | 117° |
| 2026-05-04 15:17 | 34.26189 | -117.36070 | 37030 ft | 531 kts | 117° |
| 2026-05-04 15:18 | 34.24099 | -117.27511 | 37035 ft | 531 kts | 117° |
| 2026-05-04 15:19 | 34.20953 | -117.14670 | 37036 ft | 531 kts | 117° |
| 2026-05-04 15:19 | 34.17791 | -117.01834 | 37030 ft | 531 kts | 117° |
| 2026-05-04 15:20 | 34.15680 | -116.93300 | 36984 ft | 529 kts | 116° |
| 2026-05-04 15:20 | 34.13578 | -116.84815 | 36957 ft | 526 kts | 117° |
| 2026-05-04 15:21 | 34.11495 | -116.76440 | 36941 ft | 524 kts | 117° |
| 2026-05-04 15:22 | 34.08336 | -116.63825 | 36954 ft | 525 kts | 117° |
| 2026-05-04 15:22 | 34.05149 | -116.51155 | 36938 ft | 527 kts | 118° |
| 2026-05-04 15:23 | 34.03012 | -116.42688 | 36959 ft | 529 kts | 117° |
| 2026-05-04 15:23 | 34.00859 | -116.34176 | 36954 ft | 531 kts | 117° |
| 2026-05-04 15:24 | 33.97013 | -116.19025 | 36931 ft | 530 kts | 117° |
| 2026-05-04 15:25 | 33.94848 | -116.10540 | 36930 ft | 528 kts | 117° |
| 2026-05-04 15:26 | 33.91604 | -115.97883 | 36929 ft | 527 kts | 117° |
| 2026-05-04 15:26 | 33.88357 | -115.85275 | 36936 ft | 524 kts | 117° |
| 2026-05-04 15:27 | 33.85103 | -115.72711 | 36929 ft | 525 kts | 117° |
| 2026-05-04 15:28 | 33.81837 | -115.60155 | 36925 ft | 528 kts | 117° |
| 2026-05-04 15:29 | 33.78520 | -115.47458 | 36914 ft | 532 kts | 117° |
| 2026-05-04 15:30 | 33.70690 | -115.17699 | 36903 ft | 534 kts | 117° |
| 2026-05-04 15:31 | 33.67309 | -115.04952 | 36914 ft | 534 kts | 117° |
| 2026-05-04 15:32 | 33.61648 | -114.83746 | 35814 ft | 537 kts | 117° |
| 2026-05-04 15:33 | 33.59373 | -114.75203 | 34554 ft | 540 kts | 115° |
| 2026-05-04 15:34 | 33.56718 | -114.61906 | 32432 ft | 549 kts | 110° |
| 2026-05-04 15:34 | 33.55915 | -114.57438 | 31693 ft | 549 kts | 110° |
| 2026-05-04 15:34 | 33.54244 | -114.48511 | 30170 ft | 548 kts | 110° |
| 2026-05-04 15:35 | 33.52513 | -114.39667 | 28397 ft | 546 kts | 110° |
| 2026-05-04 15:35 | 33.51642 | -114.35255 | 27507 ft | 539 kts | 110° |
| 2026-05-04 15:35 | 33.50785 | -114.30910 | 26644 ft | 533 kts | 110° |
| 2026-05-04 15:36 | 33.49108 | -114.22410 | 25631 ft | 507 kts | 110° |
| 2026-05-04 15:36 | 33.48312 | -114.18370 | 25255 ft | 493 kts | 111° |
| 2026-05-04 15:36 | 33.47537 | -114.14465 | 25217 ft | 472 kts | 111° |
| 2026-05-04 15:37 | 33.46787 | -114.10695 | 25015 ft | 458 kts | 111° |
| 2026-05-04 15:37 | 33.46055 | -114.07033 | 24800 ft | 445 kts | 112° |
| 2026-05-04 15:37 | 33.45333 | -114.03451 | 24568 ft | 441 kts | 112° |
| 2026-05-04 15:37 | 33.44608 | -113.99885 | 24352 ft | 454 kts | 112° |
| 2026-05-04 15:38 | 33.43857 | -113.96183 | 24063 ft | 460 kts | 111° |
| 2026-05-04 15:38 | 33.43109 | -113.92447 | 23791 ft | 460 kts | 111° |
| 2026-05-04 15:38 | 33.42369 | -113.88733 | 23506 ft | 456 kts | 111° |
| 2026-05-04 15:38 | 33.41632 | -113.85055 | 23169 ft | 453 kts | 111° |
| 2026-05-04 15:39 | 33.40899 | -113.81403 | 22870 ft | 450 kts | 111° |
| 2026-05-04 15:39 | 33.40168 | -113.77775 | 22572 ft | 447 kts | 111° |
| 2026-05-04 15:39 | 33.38716 | -113.70597 | 22014 ft | 440 kts | 111° |
| 2026-05-04 15:40 | 33.37995 | -113.67040 | 21723 ft | 438 kts | 110° |
| 2026-05-04 15:40 | 33.37275 | -113.63495 | 21438 ft | 436 kts | 110° |
| 2026-05-04 15:40 | 33.36559 | -113.59975 | 21100 ft | 436 kts | 110° |
| 2026-05-04 15:40 | 33.35850 | -113.56495 | 20798 ft | 436 kts | 110° |
| 2026-05-04 15:41 | 33.35135 | -113.52985 | 20506 ft | 434 kts | 110° |
| 2026-05-04 15:41 | 33.34422 | -113.49488 | 20210 ft | 431 kts | 110° |
| 2026-05-04 15:41 | 33.33713 | -113.46015 | 19923 ft | 428 kts | 109° |
| 2026-05-04 15:41 | 33.33058 | -113.42548 | 19624 ft | 427 kts | 107° |
| 2026-05-04 15:42 | 33.32465 | -113.39060 | 19329 ft | 426 kts | 107° |
| 2026-05-04 15:42 | 33.31891 | -113.35590 | 19042 ft | 424 kts | 106° |
| 2026-05-04 15:42 | 33.31313 | -113.32137 | 18747 ft | 423 kts | 106° |
| 2026-05-04 15:42 | 33.30727 | -113.28710 | 18472 ft | 421 kts | 106° |
| 2026-05-04 15:43 | 33.30132 | -113.25277 | 18189 ft | 420 kts | 106° |
| 2026-05-04 15:43 | 33.29543 | -113.21860 | 17879 ft | 418 kts | 105° |
| 2026-05-04 15:43 | 33.29036 | -113.18445 | 17590 ft | 417 kts | 103° |
| 2026-05-04 15:43 | 33.28577 | -113.15080 | 17352 ft | 414 kts | 103° |
| 2026-05-04 15:44 | 33.28109 | -113.11692 | 17091 ft | 411 kts | 103° |
| 2026-05-04 15:44 | 33.27634 | -113.08346 | 16809 ft | 406 kts | 103° |
| 2026-05-04 15:44 | 33.27338 | -113.05003 | 16539 ft | 403 kts | 93° |
| 2026-05-04 15:44 | 33.27410 | -113.01673 | 16301 ft | 398 kts | 90° |
| 2026-05-04 15:45 | 33.27555 | -112.98388 | 16061 ft | 393 kts | 89° |
| 2026-05-04 15:45 | 33.27693 | -112.95149 | 15818 ft | 388 kts | 90° |
| 2026-05-04 15:45 | 33.27805 | -112.91937 | 15577 ft | 385 kts | 90° |
| 2026-05-04 15:45 | 33.27894 | -112.88747 | 15341 ft | 382 kts | 91° |
| 2026-05-04 15:46 | 33.27972 | -112.85593 | 15098 ft | 378 kts | 91° |
| 2026-05-04 15:46 | 33.28046 | -112.82476 | 14860 ft | 373 kts | 90° |
| 2026-05-04 15:46 | 33.28215 | -112.79426 | 14615 ft | 370 kts | 86° |
| 2026-05-04 15:46 | 33.28500 | -112.76349 | 14362 ft | 368 kts | 85° |
| 2026-05-04 15:47 | 33.28813 | -112.73330 | 14129 ft | 374 kts | 84° |
| 2026-05-04 15:47 | 33.29135 | -112.70197 | 13883 ft | 385 kts | 84° |
| 2026-05-04 15:47 | 33.29453 | -112.67027 | 13623 ft | 384 kts | 85° |
| 2026-05-04 15:47 | 33.29763 | -112.63862 | 13336 ft | 382 kts | 85° |
| 2026-05-04 15:48 | 33.30064 | -112.60715 | 13047 ft | 379 kts | 85° |
| 2026-05-04 15:48 | 33.30357 | -112.57590 | 12760 ft | 377 kts | 85° |
| 2026-05-04 15:48 | 33.30931 | -112.51397 | 12183 ft | 372 kts | 85° |
| 2026-05-04 15:49 | 33.31214 | -112.48327 | 11912 ft | 370 kts | 86° |
| 2026-05-04 15:49 | 33.31492 | -112.45303 | 11634 ft | 360 kts | 86° |
| 2026-05-04 15:49 | 33.31762 | -112.42374 | 11349 ft | 349 kts | 86° |
| 2026-05-04 15:49 | 33.32019 | -112.39568 | 11101 ft | 337 kts | 86° |
| 2026-05-04 15:50 | 33.32269 | -112.36839 | 11026 ft | 323 kts | 86° |
| 2026-05-04 15:50 | 33.32374 | -112.34192 | 11029 ft | 318 kts | 94° |
| 2026-05-04 15:50 | 33.32313 | -112.31596 | 11024 ft | 319 kts | 96° |
| 2026-05-04 15:50 | 33.32206 | -112.28929 | 11024 ft | 322 kts | 96° |
| 2026-05-04 15:51 | 33.32098 | -112.26248 | 10984 ft | 324 kts | 96° |
| 2026-05-04 15:51 | 33.32000 | -112.23552 | 10725 ft | 324 kts | 95° |
| 2026-05-04 15:51 | 33.31912 | -112.20872 | 10481 ft | 320 kts | 95° |
| 2026-05-04 15:51 | 33.31833 | -112.18223 | 10221 ft | 316 kts | 95° |
| 2026-05-04 15:52 | 33.31758 | -112.15618 | 10005 ft | 311 kts | 95° |
| 2026-05-04 15:52 | 33.31688 | -112.13050 | 9790 ft | 307 kts | 95° |
| 2026-05-04 15:52 | 33.31619 | -112.10547 | 9567 ft | 303 kts | 95° |
| 2026-05-04 15:52 | 33.31549 | -112.08009 | 9332 ft | 300 kts | 95° |
| 2026-05-04 15:53 | 33.31481 | -112.05531 | 9099 ft | 297 kts | 95° |
| 2026-05-04 15:53 | 33.31414 | -112.03076 | 8868 ft | 295 kts | 95° |
| 2026-05-04 15:53 | 33.31348 | -112.00660 | 8642 ft | 293 kts | 95° |
| 2026-05-04 15:53 | 33.31281 | -111.98237 | 8417 ft | 290 kts | 95° |
| 2026-05-04 15:54 | 33.31213 | -111.95831 | 8190 ft | 288 kts | 96° |
| 2026-05-04 15:54 | 33.31146 | -111.93442 | 8005 ft | 286 kts | 96° |
| 2026-05-04 15:54 | 33.31080 | -111.91075 | 7792 ft | 284 kts | 96° |
| 2026-05-04 15:54 | 33.31013 | -111.88727 | 7573 ft | 282 kts | 96° |
| 2026-05-04 15:55 | 33.30946 | -111.86385 | 7352 ft | 281 kts | 96° |
| 2026-05-04 15:55 | 33.30879 | -111.84063 | 7146 ft | 279 kts | 96° |
| 2026-05-04 15:55 | 33.30812 | -111.81754 | 6962 ft | 276 kts | 96° |
| 2026-05-04 15:55 | 33.30746 | -111.79477 | 6789 ft | 272 kts | 97° |
| 2026-05-04 15:56 | 33.30681 | -111.77235 | 6623 ft | 269 kts | 97° |
| 2026-05-04 15:56 | 33.30615 | -111.75010 | 6438 ft | 265 kts | 97° |
| 2026-05-04 15:56 | 33.30552 | -111.72844 | 6262 ft | 255 kts | 97° |
| 2026-05-04 15:56 | 33.30740 | -111.70773 | 6084 ft | 258 kts | 72° |
| 2026-05-04 15:57 | 33.31763 | -111.69035 | 6051 ft | 259 kts | 40° |
| 2026-05-04 15:57 | 33.33387 | -111.68115 | 5910 ft | 264 kts | 8° |
| 2026-05-04 15:57 | 33.35191 | -111.68328 | 5696 ft | 262 kts | 336° |
| 2026-05-04 15:57 | 33.36782 | -111.69252 | 5549 ft | 248 kts | 328° |
| 2026-05-04 15:58 | 33.38252 | -111.70249 | 5329 ft | 238 kts | 326° |
| 2026-05-04 15:58 | 33.39657 | -111.71201 | 5146 ft | 227 kts | 327° |
| 2026-05-04 15:58 | 33.41005 | -111.72101 | 5028 ft | 215 kts | 327° |
| 2026-05-04 15:58 | 33.42296 | -111.72956 | 5021 ft | 211 kts | 327° |
| 2026-05-04 15:59 | 33.43499 | -111.73944 | 4914 ft | 210 kts | 303° |
| 2026-05-04 15:59 | 33.44018 | -111.75460 | 4762 ft | 189 kts | 270° |
| 2026-05-04 15:59 | 33.44070 | -111.76980 | 4582 ft | 179 kts | 264° |
| 2026-05-04 15:59 | 33.44070 | -111.78444 | 4380 ft | 172 kts | 264° |
| 2026-05-04 16:00 | 33.44065 | -111.79931 | 4282 ft | 188 kts | 264° |
| 2026-05-04 16:00 | 33.44058 | -111.81511 | 4145 ft | 190 kts | 265° |
| 2026-05-04 16:00 | 33.44061 | -111.83081 | 3876 ft | 187 kts | 266° |
| 2026-05-04 16:00 | 33.44092 | -111.84616 | 3558 ft | 188 kts | 267° |
| 2026-05-04 16:01 | 33.44099 | -111.86185 | 3240 ft | 187 kts | 265° |
| 2026-05-04 16:01 | 33.44082 | -111.87700 | 3001 ft | 178 kts | 266° |
| 2026-05-04 16:01 | 33.44074 | -111.89140 | 2765 ft | 167 kts | 266° |
| 2026-05-04 16:01 | 33.44080 | -111.90496 | 2554 ft | 160 kts | 266° |
| 2026-05-04 16:02 | 33.44087 | -111.91810 | 2365 ft | 156 kts | 266° |
| 2026-05-04 16:02 | 33.44072 | -111.93092 | 2125 ft | 150 kts | 266° |
| 2026-05-04 16:02 | 33.44098 | -111.95568 | 1809 ft | 153 kts | 266° |
| 2026-05-04 16:03 | 33.44081 | -111.96837 | 1621 ft | 151 kts | 266° |
| 2026-05-04 16:03 | 33.44082 | -111.98048 | 1354 ft | 140 kts | 268° |
| 2026-05-04 16:03 | 33.44082 | -111.99230 | 1182 ft | 144 kts | 268° |
| 2026-05-04 16:03 | 33.44084 | -112.00346 | 1122 ft | 121 kts | 270° |
| 2026-05-04 16:04 | 33.44085 | -112.01144 | 1125 ft | 72 kts | 270° |
| 2026-05-04 16:04 | 33.44030 | -112.01710 | 1122 ft | 15 kts | 225° |
| 2026-05-04 16:04 | 33.43950 | -112.01775 | 1121 ft | 14 kts | 193° |
| 2026-05-04 16:05 | 33.43901 | -112.01702 | 1123 ft | 13 kts | 89° |
| 2026-05-04 16:05 | 33.43901 | -112.01593 | 1123 ft | 13 kts | 91° |
| 2026-05-04 16:05 | 33.43902 | -112.01351 | 1123 ft | 19 kts | 89° |
| 2026-05-04 16:06 | 33.43901 | -112.01181 | 1123 ft | 21 kts | 91° |
| 2026-05-04 16:06 | 33.43900 | -112.00739 | 1123 ft | 19 kts | 90° |
| 2026-05-04 16:07 | 33.43900 | -112.00533 | 1123 ft | 18 kts | 90° |
| 2026-05-04 16:07 | 33.43904 | -112.00103 | 1123 ft | 16 kts | 90° |
| 2026-05-04 16:08 | 33.43904 | -111.99970 | 1123 ft | 16 kts | 90° |
| 2026-05-04 16:08 | 33.43904 | -111.99527 | 1123 ft | 17 kts | 90° |
| 2026-05-04 16:09 | 33.43904 | -111.99369 | 1123 ft | 7 kts | 90° |
| 2026-05-04 16:09 | 33.43900 | -111.99247 | 1123 ft | 9 kts | 107° |
| 2026-05-04 16:10 | 33.43770 | -111.99226 | 1118 ft | 10 kts | 180° |
| 2026-05-04 16:11 | 33.43453 | -111.99231 | 1123 ft | 12 kts | 198° |
| 2026-05-04 16:11 | 33.43371 | -111.99246 | 1118 ft | 12 kts | 180° |
| 2026-05-04 16:12 | 33.43283 | -111.99397 | 1118 ft | 11 kts | 270° |
| 2026-05-04 16:12 | 33.43284 | -111.99707 | 1121 ft | 6 kts | 281° |
| 2026-05-04 16:13 | 33.43342 | -111.99696 | 1120 ft | 2 kts | 25° |
| 2026-05-04 16:13 | 33.43347 | -111.99693 | 1119 ft | 0 kts | 25° |